Weather History for KCVX - December, 2012

Change the Weather History Date:

Friday, December 7, 2012

  Actual Average Record
Temperature  
Mean Temperature 38 °F -  
Max Temperature 42 °F 37 °F - (-1)
Min Temperature 33 °F 26 °F - (-1)
Degree Days  
Heating Degree Days 28    
Moisture  
Dew Point 29 °F    
Average Humidity 73    
Maximum Humidity 85    
Minimum Humidity 64    
Precipitation  
Precipitation 0.00 in - - ()
Sea Level Pressure  
Sea Level Pressure 29.96 in    
Wind  
Wind Speed 8 mph (North)    
Max Wind Speed 13 mph    
Max Gust Speed 16 mph    
Visibility 10 miles    
Events      
Averages and records for this station are not official NWS values.
T = Trace of Precipitation, MM = Missing Value Source: NWS Daily Summary

Daily Weather History Graph

Daily Weather History Graph

Search for Another Location

Airport or City:

Trip Planner

Search our weather history database for the weather conditions in past years. The results will help you decide how hot, cold, wet, or windy it might be!

Date:

Astronomy

Dec. 07, 2012 Rise Set
Actual Time 8:07 AM EST 4:58 PM EST
Civil Twilight 7:33 AM EST 5:32 PM EST
Nautical Twilight 6:56 AM EST 6:09 PM EST
Astronomical Twilight 6:20 AM EST 6:45 PM EST
Moon 1:09 AM EST (12/7) 1:09 PM EST (12/7)
Length of Visible Light 9h 58m
Length of Day
8h 51m
Last Quarter, 39% of the Moon is Illuminated
Dec 7
Last Quarter
Dec 13
New
Dec 20
First Quarter
Dec 28
Full
Jan 4
Last Quarter

Hourly Weather History & Observations

Time (EST) Temp. Windchill Dew Point Humidity Pressure Visibility Wind Dir Wind Speed Gust Speed Precip Events Conditions
12:14 AM 41.0 °F 35.8 °F 36.0 °F 82% 29.85 in 10.0 mi SSW 8.1 mph - N/A   Overcast
12:35 AM 41.0 °F 36.4 °F 36.5 °F 84% 29.85 in 10.0 mi SSW 6.9 mph - N/A   Overcast
12:55 AM 40.8 °F 35.6 °F 36.5 °F 85% 29.85 in 10.0 mi SSW 8.1 mph - N/A   Overcast
1:14 AM 41.0 °F 36.4 °F 36.7 °F 85% 29.84 in 10.0 mi SSW 6.9 mph - N/A   Overcast
1:35 AM 41.2 °F 36.6 °F 37.0 °F 85% 29.85 in 10.0 mi SW 6.9 mph - N/A   Overcast
1:55 AM 41.2 °F 36.6 °F 37.0 °F 85% 29.85 in 10.0 mi SSW 6.9 mph - N/A   Overcast
2:15 AM 41.9 °F 36.3 °F 37.2 °F 83% 29.86 in 10.0 mi West 9.2 mph - N/A   Overcast
2:35 AM 42.4 °F 36.1 °F 36.9 °F 81% 29.87 in 10.0 mi WNW 11.5 mph 16.1 mph N/A   Overcast
2:54 AM 41.9 °F 36.3 °F 36.3 °F 81% 29.87 in 10.0 mi NW 9.2 mph - N/A   Overcast
3:15 AM 41.9 °F 36.9 °F 34.7 °F 76% 29.88 in 10.0 mi NW 8.1 mph - N/A   Overcast
3:34 AM 41.4 °F 35.7 °F 32.9 °F 72% 29.88 in 10.0 mi NW 9.2 mph - N/A   Overcast
3:55 AM 40.5 °F 35.1 °F 32.9 °F 74% 29.88 in 10.0 mi NNW 8.1 mph - N/A   Overcast
4:14 AM 39.6 °F 34.0 °F 32.0 °F 74% 29.89 in 10.0 mi NNW 8.1 mph - N/A   Mostly Cloudy
4:35 AM 40.1 °F 36.9 °F 32.0 °F 73% 29.89 in 10.0 mi NW 4.6 mph - N/A   Mostly Cloudy
4:54 AM 40.3 °F 35.5 °F 32.0 °F 72% 29.89 in 10.0 mi NNW 6.9 mph - N/A   Overcast
5:15 AM 40.3 °F 35.5 °F 32.2 °F 73% 29.90 in 10.0 mi NNW 6.9 mph - N/A   Overcast
5:34 AM 40.1 °F 36.9 °F 32.4 °F 74% 29.91 in 10.0 mi NNW 4.6 mph - N/A   Overcast
5:55 AM 40.1 °F 35.3 °F 31.8 °F 72% 29.91 in 10.0 mi NW 6.9 mph - N/A   Overcast
6:14 AM 39.7 °F 35.6 °F 32.0 °F 74% 29.91 in 10.0 mi NNW 5.8 mph - N/A   Overcast
6:35 AM 39.6 °F 35.4 °F 32.0 °F 74% 29.92 in 10.0 mi NNW 5.8 mph - N/A   Overcast
6:55 AM 39.6 °F 33.5 °F 32.7 °F 76% 29.93 in 10.0 mi NNW 9.2 mph - N/A   Overcast
7:13 AM 39.2 °F 33.0 °F 32.4 °F 76% 29.93 in 10.0 mi NNW 9.2 mph - N/A   Overcast
7:35 AM 38.8 °F 32.6 °F 32.4 °F 78% 29.94 in 10.0 mi NNW 9.2 mph - N/A   Overcast
7:54 AM 38.5 °F 32.1 °F 32.7 °F 80% 29.95 in 10.0 mi North 9.2 mph - N/A   Overcast
8:15 AM 37.6 °F 29.6 °F 32.0 °F 80% 29.95 in 10.0 mi North 12.7 mph - N/A   Overcast
8:35 AM 37.4 °F 29.8 °F 31.1 °F 78% 29.95 in 10.0 mi North 11.5 mph 16.1 mph N/A   Overcast
8:55 AM 37.0 °F 29.3 °F 31.1 °F 79% 29.96 in 10.0 mi NNE 11.5 mph - N/A   Overcast
9:15 AM 36.9 °F 29.1 °F 29.7 °F 75% 29.97 in 10.0 mi NNE 11.5 mph - N/A   Overcast
9:35 AM 36.7 °F 30.5 °F 29.1 °F 74% 29.98 in 10.0 mi North 8.1 mph - N/A   Overcast
9:55 AM 36.7 °F 31.2 °F 29.1 °F 74% 29.97 in 10.0 mi North 6.9 mph - N/A   Overcast
10:15 AM 36.7 °F 29.4 °F 29.3 °F 75% 29.98 in 10.0 mi North 10.4 mph - N/A   Overcast
10:34 AM 36.9 °F 31.4 °F 29.3 °F 74% 29.99 in 10.0 mi North 6.9 mph - N/A   Overcast
10:55 AM 36.7 °F 30.5 °F 28.9 °F 74% 30.00 in 10.0 mi North 8.1 mph - N/A   Overcast
11:15 AM 36.9 °F 30.7 °F 28.9 °F 73% 30.00 in 10.0 mi North 8.1 mph - N/A   Overcast
11:35 AM 37.0 °F 31.0 °F 28.9 °F 73% 29.99 in 10.0 mi North 8.1 mph - N/A   Overcast
11:55 AM 37.4 °F 31.4 °F 28.9 °F 71% 29.99 in 10.0 mi North 8.1 mph - N/A   Overcast
12:15 PM 37.4 °F 31.4 °F 28.6 °F 70% 29.99 in 10.0 mi North 8.1 mph - N/A   Overcast
12:35 PM 37.0 °F 31.6 °F 28.2 °F 70% 29.98 in 10.0 mi North 6.9 mph - N/A   Overcast
12:55 PM 37.0 °F 32.4 °F 27.9 °F 69% 29.98 in 10.0 mi North 5.8 mph - N/A   Overcast
1:15 PM 37.4 °F 32.8 °F 28.2 °F 69% 29.98 in 10.0 mi North 5.8 mph - N/A   Overcast
1:35 PM 37.4 °F 32.1 °F 27.7 °F 68% 29.98 in 10.0 mi NNW 6.9 mph - N/A   Overcast
1:55 PM 37.6 °F 31.0 °F 28.0 °F 68% 29.98 in 10.0 mi NNW 9.2 mph - N/A   Overcast
2:15 PM 37.4 °F 31.4 °F 27.3 °F 67% 29.98 in 10.0 mi NNW 8.1 mph - N/A   Overcast
2:35 PM 37.4 °F 32.1 °F 27.3 °F 67% 29.98 in 10.0 mi North 6.9 mph - N/A   Overcast
2:55 PM 36.7 °F 32.9 °F 26.2 °F 66% 29.99 in 10.0 mi NNW 4.6 mph - N/A   Overcast
3:14 PM 37.2 °F 31.2 °F 26.2 °F 65% 29.98 in 10.0 mi North 8.1 mph - N/A   Overcast
3:35 PM 36.5 °F 32.7 °F 25.5 °F 64% 29.99 in 10.0 mi NNW 4.6 mph - N/A   Mostly Cloudy
3:55 PM 36.5 °F 30.3 °F 26.2 °F 66% 29.99 in 10.0 mi North 8.1 mph - N/A   Mostly Cloudy
4:15 PM 36.5 °F 31.8 °F 26.4 °F 67% 30.00 in 10.0 mi North 5.8 mph - N/A   Overcast
4:35 PM 36.1 °F 31.4 °F 26.4 °F 68% 30.00 in 10.0 mi NNW 5.8 mph - N/A   Overcast
4:55 PM 35.6 °F 30.7 °F 25.5 °F 67% 30.00 in 10.0 mi North 5.8 mph - N/A   Overcast
5:15 PM 35.8 °F 30.9 °F 25.7 °F 67% 30.00 in 10.0 mi NE 5.8 mph - N/A   Mostly Cloudy
5:34 PM 35.8 °F 31.9 °F 25.7 °F 67% 30.00 in 10.0 mi NE 4.6 mph - N/A   Overcast
5:55 PM 35.6 °F 31.7 °F 26.2 °F 69% 29.99 in 10.0 mi NE 4.6 mph - N/A   Overcast
6:15 PM 35.6 °F 29.9 °F 26.1 °F 68% 30.00 in 10.0 mi NE 6.9 mph - N/A   Overcast
6:35 PM 35.2 °F 31.2 °F 26.6 °F 71% 30.00 in 10.0 mi ENE 4.6 mph - N/A   Overcast
6:55 PM 35.1 °F 32.2 °F 26.6 °F 71% 30.01 in 10.0 mi NE 3.5 mph - N/A   Overcast
7:15 PM 35.1 °F 31.0 °F 26.4 °F 71% 30.01 in 10.0 mi NE 4.6 mph - N/A   Overcast
7:35 PM 35.1 °F 31.0 °F 26.2 °F 70% 30.01 in 10.0 mi ENE 4.6 mph - N/A   Overcast
7:54 PM 34.9 °F 30.8 °F 26.2 °F 71% 30.01 in 10.0 mi ENE 4.6 mph - N/A   Overcast
8:15 PM 34.9 °F 30.8 °F 26.4 °F 71% 30.02 in 10.0 mi NE 4.6 mph - N/A   Overcast
8:35 PM 34.7 °F 30.6 °F 26.4 °F 72% 30.02 in 10.0 mi NE 4.6 mph - N/A   Overcast
8:54 PM 34.7 °F 28.1 °F 26.4 °F 72% 30.01 in 10.0 mi NE 8.1 mph - N/A   Overcast
9:15 PM 34.3 °F 29.2 °F 26.1 °F 72% 30.01 in 10.0 mi NE 5.8 mph - N/A   Overcast
9:35 PM 34.0 °F 28.8 °F 26.1 °F 73% 30.01 in 10.0 mi NE 5.8 mph - N/A   Overcast
9:55 PM 33.8 °F 27.7 °F 25.0 °F 70% 30.01 in 10.0 mi NNE 6.9 mph - N/A   Overcast
10:15 PM 33.4 °F 25.9 °F 25.0 °F 71% 30.01 in 10.0 mi NNE 9.2 mph - N/A   Overcast
10:34 PM 33.3 °F 26.4 °F 24.4 °F 70% 30.02 in 10.0 mi NE 8.1 mph - N/A   Overcast
10:55 PM 33.3 °F 27.1 °F 24.4 °F 70% 30.01 in 10.0 mi NNE 6.9 mph - N/A   Overcast
11:14 PM 33.1 °F 26.1 °F 24.8 °F 72% 30.01 in 10.0 mi NNE 8.1 mph - N/A   Overcast
11:35 PM 33.1 °F 26.9 °F 24.3 °F 70% 30.01 in 10.0 mi NE 6.9 mph - N/A   Overcast
11:55 PM 33.1 °F 26.1 °F 24.4 °F 71% 30.02 in 10.0 mi NE 8.1 mph - N/A   Overcast